sensor_id;sensor_type;location;lat;lon;timestamp;temperature;humidity
13976;DHT22;7062;49.792;9.946;2023-11-19T00:00:25;8.00;99.90
13976;DHT22;7062;49.792;9.946;2023-11-19T00:02:51;8.00;99.90
13976;DHT22;7062;49.792;9.946;2023-11-19T00:05:20;8.00;99.90
13976;DHT22;7062;49.792;9.946;2023-11-19T00:07:46;8.00;99.90
13976;DHT22;7062;49.792;9.946;2023-11-19T00:10:14;8.10;99.90
13976;DHT22;7062;49.792;9.946;2023-11-19T00:12:45;8.10;99.90
13976;DHT22;7062;49.792;9.946;2023-11-19T00:15:13;8.10;99.90
13976;DHT22;7062;49.792;9.946;2023-11-19T00:17:42;8.10;99.90
13976;DHT22;7062;49.792;9.946;2023-11-19T00:20:22;8.20;99.90
13976;DHT22;7062;49.792;9.946;2023-11-19T00:22:48;8.20;99.90
13976;DHT22;7062;49.792;9.946;2023-11-19T00:25:16;8.20;99.90
13976;DHT22;7062;49.792;9.946;2023-11-19T00:27:42;8.20;99.90
13976;DHT22;7062;49.792;9.946;2023-11-19T00:30:11;8.20;99.90
13976;DHT22;7062;49.792;9.946;2023-11-19T00:32:37;8.20;99.90
13976;DHT22;7062;49.792;9.946;2023-11-19T00:35:05;8.20;99.90
13976;DHT22;7062;49.792;9.946;2023-11-19T00:37:31;8.20;99.90
13976;DHT22;7062;49.792;9.946;2023-11-19T00:39:59;8.20;99.90
13976;DHT22;7062;49.792;9.946;2023-11-19T00:42:24;8.10;99.90
13976;DHT22;7062;49.792;9.946;2023-11-19T00:44:51;8.20;99.90
13976;DHT22;7062;49.792;9.946;2023-11-19T00:47:17;8.20;99.90
13976;DHT22;7062;49.792;9.946;2023-11-19T00:49:46;8.20;99.90
13976;DHT22;7062;49.792;9.946;2023-11-19T00:52:14;8.20;99.90
13976;DHT22;7062;49.792;9.946;2023-11-19T00:54:41;8.20;99.90
13976;DHT22;7062;49.792;9.946;2023-11-19T00:57:06;8.20;99.90
13976;DHT22;7062;49.792;9.946;2023-11-19T00:59:32;8.20;99.90
13976;DHT22;7062;49.792;9.946;2023-11-19T01:01:58;8.10;99.90
13976;DHT22;7062;49.792;9.946;2023-11-19T01:04:34;8.10;99.90
13976;DHT22;7062;49.792;9.946;2023-11-19T01:07:02;8.10;99.90
13976;DHT22;7062;49.792;9.946;2023-11-19T01:09:38;8.10;99.90
13976;DHT22;7062;49.792;9.946;2023-11-19T01:12:04;8.10;99.90
13976;DHT22;7062;49.792;9.946;2023-11-19T01:14:30;8.10;99.90
13976;DHT22;7062;49.792;9.946;2023-11-19T01:16:56;8.10;99.90
13976;DHT22;7062;49.792;9.946;2023-11-19T01:19:22;8.20;99.90
13976;DHT22;7062;49.792;9.946;2023-11-19T01:21:49;8.30;99.90
13976;DHT22;7062;49.792;9.946;2023-11-19T01:24:14;8.30;99.90
13976;DHT22;7062;49.792;9.946;2023-11-19T01:26:41;8.40;99.90
13976;DHT22;7062;49.792;9.946;2023-11-19T01:29:14;8.40;99.90
13976;DHT22;7062;49.792;9.946;2023-11-19T01:31:41;8.40;99.90
13976;DHT22;7062;49.792;9.946;2023-11-19T01:34:07;8.40;99.90
13976;DHT22;7062;49.792;9.946;2023-11-19T01:36:33;8.40;99.90
13976;DHT22;7062;49.792;9.946;2023-11-19T01:38:59;8.50;99.90
13976;DHT22;7062;49.792;9.946;2023-11-19T01:41:24;8.40;99.90
13976;DHT22;7062;49.792;9.946;2023-11-19T01:43:50;8.40;99.90
13976;DHT22;7062;49.792;9.946;2023-11-19T01:46:16;8.40;99.90
13976;DHT22;7062;49.792;9.946;2023-11-19T01:48:46;8.40;99.90
13976;DHT22;7062;49.792;9.946;2023-11-19T01:51:16;8.50;99.90
13976;DHT22;7062;49.792;9.946;2023-11-19T01:53:43;8.50;99.90
13976;DHT22;7062;49.792;9.946;2023-11-19T01:56:11;8.60;99.90
13976;DHT22;7062;49.792;9.946;2023-11-19T01:58:39;8.60;99.90
13976;DHT22;7062;49.792;9.946;2023-11-19T02:01:06;8.60;99.90
13976;DHT22;7062;49.792;9.946;2023-11-19T02:03:33;8.60;99.90
13976;DHT22;7062;49.792;9.946;2023-11-19T02:05:59;8.60;99.90
13976;DHT22;7062;49.792;9.946;2023-11-19T02:08:26;8.70;99.90
13976;DHT22;7062;49.792;9.946;2023-11-19T02:10:52;8.70;99.90
13976;DHT22;7062;49.792;9.946;2023-11-19T02:13:18;8.80;99.90
13976;DHT22;7062;49.792;9.946;2023-11-19T02:15:44;8.80;99.90
13976;DHT22;7062;49.792;9.946;2023-11-19T02:18:20;8.80;99.90
13976;DHT22;7062;49.792;9.946;2023-11-19T02:20:50;8.90;99.90
13976;DHT22;7062;49.792;9.946;2023-11-19T02:23:16;8.90;99.90
13976;DHT22;7062;49.792;9.946;2023-11-19T02:25:45;8.90;99.90
13976;DHT22;7062;49.792;9.946;2023-11-19T02:28:12;9.00;99.90
13976;DHT22;7062;49.792;9.946;2023-11-19T02:30:42;9.00;99.90
13976;DHT22;7062;49.792;9.946;2023-11-19T02:33:07;9.00;99.90
13976;DHT22;7062;49.792;9.946;2023-11-19T02:35:34;8.90;99.90
13976;DHT22;7062;49.792;9.946;2023-11-19T02:38:00;8.90;99.90
13976;DHT22;7062;49.792;9.946;2023-11-19T02:40:32;8.90;99.90
13976;DHT22;7062;49.792;9.946;2023-11-19T02:42:58;8.90;99.90
13976;DHT22;7062;49.792;9.946;2023-11-19T02:45:25;8.90;99.90
13976;DHT22;7062;49.792;9.946;2023-11-19T02:47:52;8.90;99.90
13976;DHT22;7062;49.792;9.946;2023-11-19T02:50:19;8.90;99.90
13976;DHT22;7062;49.792;9.946;2023-11-19T02:52:54;8.90;99.90
13976;DHT22;7062;49.792;9.946;2023-11-19T02:55:22;8.80;99.90
13976;DHT22;7062;49.792;9.946;2023-11-19T02:57:50;8.90;99.90
13976;DHT22;7062;49.792;9.946;2023-11-19T03:00:17;8.90;99.90
13976;DHT22;7062;49.792;9.946;2023-11-19T03:02:43;8.90;99.90
13976;DHT22;7062;49.792;9.946;2023-11-19T03:05:12;8.90;99.90
13976;DHT22;7062;49.792;9.946;2023-11-19T03:07:41;8.80;99.90
13976;DHT22;7062;49.792;9.946;2023-11-19T03:10:08;8.80;99.90
13976;DHT22;7062;49.792;9.946;2023-11-19T03:12:34;8.90;99.90
13976;DHT22;7062;49.792;9.946;2023-11-19T03:15:01;8.90;99.90
13976;DHT22;7062;49.792;9.946;2023-11-19T03:17:27;8.90;99.90
13976;DHT22;7062;49.792;9.946;2023-11-19T03:19:52;9.00;99.90
13976;DHT22;7062;49.792;9.946;2023-11-19T03:22:18;9.00;99.90
13976;DHT22;7062;49.792;9.946;2023-11-19T03:24:43;8.90;99.90
13976;DHT22;7062;49.792;9.946;2023-11-19T03:27:09;9.00;99.90
13976;DHT22;7062;49.792;9.946;2023-11-19T03:29:35;9.00;99.90
13976;DHT22;7062;49.792;9.946;2023-11-19T03:32:01;9.00;99.90
13976;DHT22;7062;49.792;9.946;2023-11-19T03:34:26;9.10;99.90
13976;DHT22;7062;49.792;9.946;2023-11-19T03:36:52;9.10;99.90
13976;DHT22;7062;49.792;9.946;2023-11-19T03:39:18;9.10;99.90
13976;DHT22;7062;49.792;9.946;2023-11-19T03:41:45;9.20;99.90
13976;DHT22;7062;49.792;9.946;2023-11-19T03:44:12;9.20;99.90
13976;DHT22;7062;49.792;9.946;2023-11-19T03:46:38;9.20;99.90
13976;DHT22;7062;49.792;9.946;2023-11-19T03:49:03;9.20;99.90
13976;DHT22;7062;49.792;9.946;2023-11-19T03:51:31;9.20;99.90
13976;DHT22;7062;49.792;9.946;2023-11-19T03:53:57;9.30;99.90
13976;DHT22;7062;49.792;9.946;2023-11-19T03:56:22;9.30;99.90
13976;DHT22;7062;49.792;9.946;2023-11-19T03:58:48;9.30;99.90
13976;DHT22;7062;49.792;9.946;2023-11-19T04:01:14;9.30;99.90
13976;DHT22;7062;49.792;9.946;2023-11-19T04:03:39;9.40;99.90
13976;DHT22;7062;49.792;9.946;2023-11-19T04:06:05;9.40;99.90
13976;DHT22;7062;49.792;9.946;2023-11-19T04:08:31;9.40;99.90
13976;DHT22;7062;49.792;9.946;2023-11-19T04:10:57;9.40;99.90
13976;DHT22;7062;49.792;9.946;2023-11-19T04:13:22;9.40;99.90
13976;DHT22;7062;49.792;9.946;2023-11-19T04:15:50;9.50;99.90
13976;DHT22;7062;49.792;9.946;2023-11-19T04:18:16;9.50;99.90
13976;DHT22;7062;49.792;9.946;2023-11-19T04:20:41;9.50;99.90
13976;DHT22;7062;49.792;9.946;2023-11-19T04:23:08;9.50;99.90
13976;DHT22;7062;49.792;9.946;2023-11-19T04:25:35;9.50;99.90
13976;DHT22;7062;49.792;9.946;2023-11-19T04:28:01;9.60;99.90
13976;DHT22;7062;49.792;9.946;2023-11-19T04:30:28;9.50;99.90
13976;DHT22;7062;49.792;9.946;2023-11-19T04:32:53;9.50;99.90
13976;DHT22;7062;49.792;9.946;2023-11-19T04:35:19;9.60;99.90
13976;DHT22;7062;49.792;9.946;2023-11-19T04:37:45;9.60;99.90
13976;DHT22;7062;49.792;9.946;2023-11-19T04:40:11;9.60;99.90
13976;DHT22;7062;49.792;9.946;2023-11-19T04:42:37;9.60;99.90
13976;DHT22;7062;49.792;9.946;2023-11-19T04:45:06;9.70;99.90
13976;DHT22;7062;49.792;9.946;2023-11-19T04:47:32;9.70;99.90
13976;DHT22;7062;49.792;9.946;2023-11-19T04:49:58;9.70;99.90
13976;DHT22;7062;49.792;9.946;2023-11-19T04:52:24;9.80;99.90
13976;DHT22;7062;49.792;9.946;2023-11-19T04:54:50;9.80;99.90
13976;DHT22;7062;49.792;9.946;2023-11-19T04:57:16;9.80;99.90
13976;DHT22;7062;49.792;9.946;2023-11-19T04:59:42;9.80;99.90
13976;DHT22;7062;49.792;9.946;2023-11-19T05:02:08;9.90;99.90
13976;DHT22;7062;49.792;9.946;2023-11-19T05:04:34;9.90;99.90
13976;DHT22;7062;49.792;9.946;2023-11-19T05:07:00;9.90;99.90
13976;DHT22;7062;49.792;9.946;2023-11-19T05:09:26;9.90;99.90
13976;DHT22;7062;49.792;9.946;2023-11-19T05:11:52;9.90;99.90
13976;DHT22;7062;49.792;9.946;2023-11-19T05:14:18;9.90;99.90
13976;DHT22;7062;49.792;9.946;2023-11-19T05:16:47;10.00;99.90
13976;DHT22;7062;49.792;9.946;2023-11-19T05:19:13;10.00;99.90
13976;DHT22;7062;49.792;9.946;2023-11-19T05:21:42;10.00;99.90
13976;DHT22;7062;49.792;9.946;2023-11-19T05:24:08;10.00;99.90
13976;DHT22;7062;49.792;9.946;2023-11-19T05:26:34;10.00;99.90
13976;DHT22;7062;49.792;9.946;2023-11-19T05:29:00;10.00;99.90
13976;DHT22;7062;49.792;9.946;2023-11-19T05:31:25;10.00;99.90
13976;DHT22;7062;49.792;9.946;2023-11-19T05:33:51;10.00;99.90
13976;DHT22;7062;49.792;9.946;2023-11-19T05:36:17;10.00;99.90
13976;DHT22;7062;49.792;9.946;2023-11-19T05:38:42;10.00;99.90
13976;DHT22;7062;49.792;9.946;2023-11-19T05:41:10;10.00;99.90
13976;DHT22;7062;49.792;9.946;2023-11-19T05:43:35;10.00;99.90
13976;DHT22;7062;49.792;9.946;2023-11-19T05:46:01;10.10;99.90
13976;DHT22;7062;49.792;9.946;2023-11-19T05:48:27;10.10;99.90
13976;DHT22;7062;49.792;9.946;2023-11-19T05:50:53;10.10;99.90
13976;DHT22;7062;49.792;9.946;2023-11-19T05:53:19;10.10;99.90
13976;DHT22;7062;49.792;9.946;2023-11-19T05:55:44;10.10;99.90
13976;DHT22;7062;49.792;9.946;2023-11-19T05:58:14;10.20;99.90
13976;DHT22;7062;49.792;9.946;2023-11-19T06:00:40;10.10;99.90
13976;DHT22;7062;49.792;9.946;2023-11-19T06:03:07;10.20;99.90
13976;DHT22;7062;49.792;9.946;2023-11-19T06:05:33;10.20;99.90
13976;DHT22;7062;49.792;9.946;2023-11-19T06:07:59;10.20;99.90
13976;DHT22;7062;49.792;9.946;2023-11-19T06:10:25;10.20;99.90
13976;DHT22;7062;49.792;9.946;2023-11-19T06:12:59;10.20;99.90
13976;DHT22;7062;49.792;9.946;2023-11-19T06:15:28;10.20;99.90
13976;DHT22;7062;49.792;9.946;2023-11-19T06:17:54;10.30;99.90
13976;DHT22;7062;49.792;9.946;2023-11-19T06:20:26;10.20;99.90
13976;DHT22;7062;49.792;9.946;2023-11-19T06:22:54;10.20;99.90
13976;DHT22;7062;49.792;9.946;2023-11-19T06:25:20;10.30;99.90
13976;DHT22;7062;49.792;9.946;2023-11-19T06:27:45;10.30;99.90
13976;DHT22;7062;49.792;9.946;2023-11-19T06:30:11;10.30;99.90
13976;DHT22;7062;49.792;9.946;2023-11-19T06:32:37;10.30;99.90
13976;DHT22;7062;49.792;9.946;2023-11-19T06:35:03;10.40;99.90
13976;DHT22;7062;49.792;9.946;2023-11-19T06:37:30;10.40;99.90
13976;DHT22;7062;49.792;9.946;2023-11-19T06:39:56;10.40;99.90
13976;DHT22;7062;49.792;9.946;2023-11-19T06:42:21;10.50;99.90
13976;DHT22;7062;49.792;9.946;2023-11-19T06:44:47;10.50;99.90
13976;DHT22;7062;49.792;9.946;2023-11-19T06:47:12;10.50;99.90
13976;DHT22;7062;49.792;9.946;2023-11-19T06:49:38;10.50;99.90
13976;DHT22;7062;49.792;9.946;2023-11-19T06:52:04;10.50;99.90
13976;DHT22;7062;49.792;9.946;2023-11-19T06:54:30;10.50;99.90
13976;DHT22;7062;49.792;9.946;2023-11-19T06:56:56;10.50;99.90
13976;DHT22;7062;49.792;9.946;2023-11-19T06:59:23;10.60;99.90
13976;DHT22;7062;49.792;9.946;2023-11-19T07:01:48;10.60;99.90
13976;DHT22;7062;49.792;9.946;2023-11-19T07:04:14;10.60;99.90
13976;DHT22;7062;49.792;9.946;2023-11-19T07:06:40;10.60;99.90
13976;DHT22;7062;49.792;9.946;2023-11-19T07:09:09;10.60;99.90
13976;DHT22;7062;49.792;9.946;2023-11-19T07:11:36;10.70;99.90
13976;DHT22;7062;49.792;9.946;2023-11-19T07:14:03;10.70;99.90
13976;DHT22;7062;49.792;9.946;2023-11-19T07:16:28;10.70;99.90
13976;DHT22;7062;49.792;9.946;2023-11-19T07:18:54;10.70;99.90
13976;DHT22;7062;49.792;9.946;2023-11-19T07:21:20;10.80;99.90
13976;DHT22;7062;49.792;9.946;2023-11-19T07:23:46;10.80;99.90
13976;DHT22;7062;49.792;9.946;2023-11-19T07:26:12;10.80;99.90
13976;DHT22;7062;49.792;9.946;2023-11-19T07:28:38;10.90;99.90
13976;DHT22;7062;49.792;9.946;2023-11-19T07:31:05;10.90;99.90
13976;DHT22;7062;49.792;9.946;2023-11-19T07:33:33;10.90;99.90
13976;DHT22;7062;49.792;9.946;2023-11-19T07:35:59;11.00;99.90
13976;DHT22;7062;49.792;9.946;2023-11-19T07:38:24;10.90;99.90
13976;DHT22;7062;49.792;9.946;2023-11-19T07:40:50;10.90;99.90
13976;DHT22;7062;49.792;9.946;2023-11-19T07:43:16;11.10;99.90
13976;DHT22;7062;49.792;9.946;2023-11-19T07:45:41;11.40;99.90
13976;DHT22;7062;49.792;9.946;2023-11-19T07:48:09;11.00;99.90
13976;DHT22;7062;49.792;9.946;2023-11-19T07:50:35;11.00;99.90
13976;DHT22;7062;49.792;9.946;2023-11-19T07:53:01;11.10;99.90
13976;DHT22;7062;49.792;9.946;2023-11-19T07:55:29;11.10;99.90
13976;DHT22;7062;49.792;9.946;2023-11-19T07:57:56;11.10;99.90
13976;DHT22;7062;49.792;9.946;2023-11-19T08:00:22;11.10;99.90
13976;DHT22;7062;49.792;9.946;2023-11-19T08:02:47;11.10;99.90
13976;DHT22;7062;49.792;9.946;2023-11-19T08:05:13;11.20;99.90
13976;DHT22;7062;49.792;9.946;2023-11-19T08:07:38;11.20;99.90
13976;DHT22;7062;49.792;9.946;2023-11-19T08:10:05;11.20;99.90
13976;DHT22;7062;49.792;9.946;2023-11-19T08:12:31;11.20;99.90
13976;DHT22;7062;49.792;9.946;2023-11-19T08:14:56;11.20;99.90
13976;DHT22;7062;49.792;9.946;2023-11-19T08:17:24;11.30;99.90
13976;DHT22;7062;49.792;9.946;2023-11-19T08:19:50;11.30;99.90
13976;DHT22;7062;49.792;9.946;2023-11-19T08:22:16;11.30;99.90
13976;DHT22;7062;49.792;9.946;2023-11-19T08:24:42;11.30;99.90
13976;DHT22;7062;49.792;9.946;2023-11-19T08:27:08;11.40;99.90
13976;DHT22;7062;49.792;9.946;2023-11-19T08:29:34;11.40;99.90
13976;DHT22;7062;49.792;9.946;2023-11-19T08:32:03;11.30;99.90
13976;DHT22;7062;49.792;9.946;2023-11-19T08:34:29;11.40;99.90
13976;DHT22;7062;49.792;9.946;2023-11-19T08:36:55;11.50;99.90
13976;DHT22;7062;49.792;9.946;2023-11-19T08:39:21;11.50;99.90
13976;DHT22;7062;49.792;9.946;2023-11-19T08:41:47;11.50;99.90
13976;DHT22;7062;49.792;9.946;2023-11-19T08:44:14;11.60;99.90
13976;DHT22;7062;49.792;9.946;2023-11-19T08:46:47;11.50;99.90
13976;DHT22;7062;49.792;9.946;2023-11-19T08:49:12;11.60;99.90
13976;DHT22;7062;49.792;9.946;2023-11-19T08:51:38;11.80;99.90
13976;DHT22;7062;49.792;9.946;2023-11-19T08:54:04;11.80;99.90
13976;DHT22;7062;49.792;9.946;2023-11-19T08:56:30;11.80;99.90
13976;DHT22;7062;49.792;9.946;2023-11-19T08:58:58;11.90;99.90
13976;DHT22;7062;49.792;9.946;2023-11-19T09:01:24;11.90;99.90
13976;DHT22;7062;49.792;9.946;2023-11-19T09:03:50;11.90;99.90
13976;DHT22;7062;49.792;9.946;2023-11-19T09:06:16;12.00;99.90
13976;DHT22;7062;49.792;9.946;2023-11-19T09:08:42;12.00;99.90
13976;DHT22;7062;49.792;9.946;2023-11-19T09:11:08;12.10;99.90
13976;DHT22;7062;49.792;9.946;2023-11-19T09:13:35;12.20;99.90
13976;DHT22;7062;49.792;9.946;2023-11-19T09:16:00;12.20;99.90
13976;DHT22;7062;49.792;9.946;2023-11-19T09:18:29;12.30;99.90
13976;DHT22;7062;49.792;9.946;2023-11-19T09:20:55;12.40;99.90
13976;DHT22;7062;49.792;9.946;2023-11-19T09:23:20;12.40;99.90
13976;DHT22;7062;49.792;9.946;2023-11-19T09:25:46;12.50;99.90
13976;DHT22;7062;49.792;9.946;2023-11-19T09:28:12;12.50;99.90
13976;DHT22;7062;49.792;9.946;2023-11-19T09:30:40;12.50;99.90
13976;DHT22;7062;49.792;9.946;2023-11-19T09:33:05;12.60;99.90
13976;DHT22;7062;49.792;9.946;2023-11-19T09:35:31;12.60;99.90
13976;DHT22;7062;49.792;9.946;2023-11-19T09:37:57;12.70;99.90
13976;DHT22;7062;49.792;9.946;2023-11-19T09:40:23;12.80;99.90
13976;DHT22;7062;49.792;9.946;2023-11-19T09:42:48;12.90;99.90
13976;DHT22;7062;49.792;9.946;2023-11-19T09:45:15;12.90;99.90
13976;DHT22;7062;49.792;9.946;2023-11-19T09:47:45;13.10;99.90
13976;DHT22;7062;49.792;9.946;2023-11-19T09:50:19;13.30;99.90
13976;DHT22;7062;49.792;9.946;2023-11-19T09:52:46;13.60;99.90
13976;DHT22;7062;49.792;9.946;2023-11-19T09:55:12;13.80;99.90
13976;DHT22;7062;49.792;9.946;2023-11-19T09:57:38;13.90;99.90
13976;DHT22;7062;49.792;9.946;2023-11-19T10:00:06;14.00;99.90
13976;DHT22;7062;49.792;9.946;2023-11-19T10:02:34;13.90;99.90
13976;DHT22;7062;49.792;9.946;2023-11-19T10:05:04;14.00;99.90
13976;DHT22;7062;49.792;9.946;2023-11-19T10:07:31;14.00;99.90
13976;DHT22;7062;49.792;9.946;2023-11-19T10:10:02;14.00;99.90
13976;DHT22;7062;49.792;9.946;2023-11-19T10:12:30;13.90;99.90
13976;DHT22;7062;49.792;9.946;2023-11-19T10:14:57;13.80;99.90
13976;DHT22;7062;49.792;9.946;2023-11-19T10:17:29;13.80;99.90
13976;DHT22;7062;49.792;9.946;2023-11-19T10:19:55;13.70;99.90
13976;DHT22;7062;49.792;9.946;2023-11-19T10:22:23;13.60;99.90
13976;DHT22;7062;49.792;9.946;2023-11-19T10:24:49;13.60;99.90
13976;DHT22;7062;49.792;9.946;2023-11-19T10:27:14;13.50;99.90
13976;DHT22;7062;49.792;9.946;2023-11-19T10:29:47;13.50;99.90
13976;DHT22;7062;49.792;9.946;2023-11-19T10:32:13;13.40;99.90
13976;DHT22;7062;49.792;9.946;2023-11-19T10:34:40;13.40;99.90
13976;DHT22;7062;49.792;9.946;2023-11-19T10:37:07;13.40;99.90
13976;DHT22;7062;49.792;9.946;2023-11-19T10:39:52;13.40;99.90
13976;DHT22;7062;49.792;9.946;2023-11-19T10:42:21;13.40;99.90
13976;DHT22;7062;49.792;9.946;2023-11-19T10:44:47;13.80;99.90
13976;DHT22;7062;49.792;9.946;2023-11-19T10:47:15;16.00;99.90
13976;DHT22;7062;49.792;9.946;2023-11-19T10:49:44;17.30;99.90
13976;DHT22;7062;49.792;9.946;2023-11-19T10:52:12;16.40;99.90
13976;DHT22;7062;49.792;9.946;2023-11-19T10:54:44;15.60;99.90
13976;DHT22;7062;49.792;9.946;2023-11-19T10:57:19;15.00;99.90
13976;DHT22;7062;49.792;9.946;2023-11-19T10:59:45;14.50;99.90
13976;DHT22;7062;49.792;9.946;2023-11-19T11:02:14;14.30;99.90
13976;DHT22;7062;49.792;9.946;2023-11-19T11:04:42;14.10;99.90
13976;DHT22;7062;49.792;9.946;2023-11-19T11:07:09;13.90;99.90
13976;DHT22;7062;49.792;9.946;2023-11-19T11:09:35;13.80;99.90
13976;DHT22;7062;49.792;9.946;2023-11-19T11:12:01;13.70;99.90
13976;DHT22;7062;49.792;9.946;2023-11-19T11:14:27;13.60;99.90
13976;DHT22;7062;49.792;9.946;2023-11-19T11:16:53;13.60;99.90
13976;DHT22;7062;49.792;9.946;2023-11-19T11:19:22;13.50;99.90
13976;DHT22;7062;49.792;9.946;2023-11-19T11:21:52;13.50;99.90
13976;DHT22;7062;49.792;9.946;2023-11-19T11:30:30;13.50;99.90
13976;DHT22;7062;49.792;9.946;2023-11-19T11:33:32;13.60;99.90
13976;DHT22;7062;49.792;9.946;2023-11-19T11:36:20;13.70;99.90
13976;DHT22;7062;49.792;9.946;2023-11-19T11:38:49;13.80;99.90
13976;DHT22;7062;49.792;9.946;2023-11-19T11:41:19;13.90;99.90
13976;DHT22;7062;49.792;9.946;2023-11-19T11:43:54;13.90;99.90
13976;DHT22;7062;49.792;9.946;2023-11-19T11:49:07;14.10;99.90
13976;DHT22;7062;49.792;9.946;2023-11-19T11:51:59;14.30;99.90
13976;DHT22;7062;49.792;9.946;2023-11-19T11:54:28;14.50;99.90
13976;DHT22;7062;49.792;9.946;2023-11-19T11:57:14;14.40;99.90
13976;DHT22;7062;49.792;9.946;2023-11-19T12:02:12;14.00;99.90
13976;DHT22;7062;49.792;9.946;2023-11-19T12:04:39;13.90;99.90
13976;DHT22;7062;49.792;9.946;2023-11-19T12:07:13;13.90;99.90
13976;DHT22;7062;49.792;9.946;2023-11-19T12:09:45;13.90;99.90
13976;DHT22;7062;49.792;9.946;2023-11-19T12:12:23;13.90;99.90
13976;DHT22;7062;49.792;9.946;2023-11-19T12:20:03;13.80;99.90
13976;DHT22;7062;49.792;9.946;2023-11-19T12:22:31;13.90;99.90
13976;DHT22;7062;49.792;9.946;2023-11-19T12:24:57;13.90;99.90
13976;DHT22;7062;49.792;9.946;2023-11-19T12:27:23;14.00;99.90
13976;DHT22;7062;49.792;9.946;2023-11-19T12:29:49;14.10;99.90
13976;DHT22;7062;49.792;9.946;2023-11-19T12:32:15;14.30;99.90
13976;DHT22;7062;49.792;9.946;2023-11-19T12:34:41;14.30;99.90
13976;DHT22;7062;49.792;9.946;2023-11-19T12:37:07;14.20;99.90
13976;DHT22;7062;49.792;9.946;2023-11-19T12:39:35;14.30;99.90
13976;DHT22;7062;49.792;9.946;2023-11-19T12:42:01;14.40;99.90
13976;DHT22;7062;49.792;9.946;2023-11-19T12:44:26;14.50;99.90
13976;DHT22;7062;49.792;9.946;2023-11-19T12:47:06;14.50;99.90
13976;DHT22;7062;49.792;9.946;2023-11-19T12:49:35;14.60;99.90
13976;DHT22;7062;49.792;9.946;2023-11-19T12:52:01;14.60;99.90
13976;DHT22;7062;49.792;9.946;2023-11-19T12:54:36;14.50;99.90
13976;DHT22;7062;49.792;9.946;2023-11-19T12:57:03;14.50;99.90
13976;DHT22;7062;49.792;9.946;2023-11-19T12:59:30;14.50;99.90
13976;DHT22;7062;49.792;9.946;2023-11-19T13:01:57;14.50;99.90
13976;DHT22;7062;49.792;9.946;2023-11-19T13:04:27;14.50;99.90
13976;DHT22;7062;49.792;9.946;2023-11-19T13:06:53;14.60;99.90
13976;DHT22;7062;49.792;9.946;2023-11-19T13:09:27;14.80;99.90
13976;DHT22;7062;49.792;9.946;2023-11-19T13:11:55;14.90;99.90
13976;DHT22;7062;49.792;9.946;2023-11-19T13:14:22;14.80;99.90
13976;DHT22;7062;49.792;9.946;2023-11-19T13:16:48;14.80;99.90
13976;DHT22;7062;49.792;9.946;2023-11-19T13:19:17;14.70;99.90
13976;DHT22;7062;49.792;9.946;2023-11-19T13:21:45;14.60;99.90
13976;DHT22;7062;49.792;9.946;2023-11-19T13:24:13;14.50;99.90
13976;DHT22;7062;49.792;9.946;2023-11-19T13:26:38;14.50;99.90
13976;DHT22;7062;49.792;9.946;2023-11-19T13:29:04;14.50;99.90
13976;DHT22;7062;49.792;9.946;2023-11-19T13:31:30;14.50;99.90
13976;DHT22;7062;49.792;9.946;2023-11-19T13:33:56;14.60;99.90
13976;DHT22;7062;49.792;9.946;2023-11-19T13:36:24;14.60;99.90
13976;DHT22;7062;49.792;9.946;2023-11-19T13:38:50;14.50;99.90
13976;DHT22;7062;49.792;9.946;2023-11-19T13:41:16;14.50;99.90
13976;DHT22;7062;49.792;9.946;2023-11-19T13:43:43;14.40;99.90
13976;DHT22;7062;49.792;9.946;2023-11-19T13:46:09;14.40;99.90
13976;DHT22;7062;49.792;9.946;2023-11-19T13:48:37;14.40;99.90
13976;DHT22;7062;49.792;9.946;2023-11-19T13:51:03;14.40;99.90
13976;DHT22;7062;49.792;9.946;2023-11-19T13:53:29;14.40;99.90
13976;DHT22;7062;49.792;9.946;2023-11-19T13:55:55;14.30;99.90
13976;DHT22;7062;49.792;9.946;2023-11-19T13:58:21;14.40;99.90
13976;DHT22;7062;49.792;9.946;2023-11-19T14:00:46;14.40;99.90
13976;DHT22;7062;49.792;9.946;2023-11-19T14:03:12;14.40;99.90
13976;DHT22;7062;49.792;9.946;2023-11-19T14:05:38;14.30;99.90
13976;DHT22;7062;49.792;9.946;2023-11-19T14:08:05;14.30;99.90
13976;DHT22;7062;49.792;9.946;2023-11-19T14:10:39;14.30;99.90
13976;DHT22;7062;49.792;9.946;2023-11-19T14:13:06;14.30;99.90
13976;DHT22;7062;49.792;9.946;2023-11-19T14:15:32;14.30;99.90
13976;DHT22;7062;49.792;9.946;2023-11-19T14:17:57;14.30;99.90
13976;DHT22;7062;49.792;9.946;2023-11-19T14:20:23;14.50;99.90
13976;DHT22;7062;49.792;9.946;2023-11-19T14:22:49;14.60;99.90
13976;DHT22;7062;49.792;9.946;2023-11-19T14:25:16;14.90;99.90
13976;DHT22;7062;49.792;9.946;2023-11-19T14:27:43;15.00;99.90
13976;DHT22;7062;49.792;9.946;2023-11-19T14:30:10;14.90;99.90
13976;DHT22;7062;49.792;9.946;2023-11-19T14:32:37;15.10;99.90
13976;DHT22;7062;49.792;9.946;2023-11-19T14:35:07;15.10;99.90
13976;DHT22;7062;49.792;9.946;2023-11-19T14:37:33;15.10;99.90
13976;DHT22;7062;49.792;9.946;2023-11-19T14:40:00;15.00;99.90
13976;DHT22;7062;49.792;9.946;2023-11-19T14:42:26;14.80;99.90
13976;DHT22;7062;49.792;9.946;2023-11-19T14:44:52;14.60;99.90
13976;DHT22;7062;49.792;9.946;2023-11-19T14:47:21;14.40;99.90
13976;DHT22;7062;49.792;9.946;2023-11-19T14:49:47;14.30;99.90
13976;DHT22;7062;49.792;9.946;2023-11-19T14:52:13;14.20;99.90
13976;DHT22;7062;49.792;9.946;2023-11-19T14:54:39;14.10;99.90
13976;DHT22;7062;49.792;9.946;2023-11-19T14:57:05;14.00;99.90
13976;DHT22;7062;49.792;9.946;2023-11-19T14:59:33;13.90;99.90
13976;DHT22;7062;49.792;9.946;2023-11-19T15:01:59;13.90;99.90
13976;DHT22;7062;49.792;9.946;2023-11-19T15:04:26;13.80;99.90
13976;DHT22;7062;49.792;9.946;2023-11-19T15:06:52;13.80;99.90
13976;DHT22;7062;49.792;9.946;2023-11-19T15:09:18;13.70;99.90
13976;DHT22;7062;49.792;9.946;2023-11-19T15:11:46;13.70;99.90
13976;DHT22;7062;49.792;9.946;2023-11-19T15:14:13;13.60;99.90
13976;DHT22;7062;49.792;9.946;2023-11-19T15:16:44;13.60;99.90
13976;DHT22;7062;49.792;9.946;2023-11-19T15:19:10;13.50;99.90
13976;DHT22;7062;49.792;9.946;2023-11-19T15:21:38;13.50;99.90
13976;DHT22;7062;49.792;9.946;2023-11-19T15:24:04;13.50;99.90
13976;DHT22;7062;49.792;9.946;2023-11-19T15:26:33;13.50;99.90
13976;DHT22;7062;49.792;9.946;2023-11-19T15:28:59;13.40;99.90
13976;DHT22;7062;49.792;9.946;2023-11-19T15:31:25;13.40;99.90
13976;DHT22;7062;49.792;9.946;2023-11-19T15:33:50;13.30;99.90
13976;DHT22;7062;49.792;9.946;2023-11-19T15:36:17;13.20;99.90
13976;DHT22;7062;49.792;9.946;2023-11-19T15:38:43;13.20;99.90
13976;DHT22;7062;49.792;9.946;2023-11-19T15:41:09;13.20;99.90
13976;DHT22;7062;49.792;9.946;2023-11-19T15:43:34;13.10;99.90
13976;DHT22;7062;49.792;9.946;2023-11-19T15:46:00;13.10;99.90
13976;DHT22;7062;49.792;9.946;2023-11-19T15:48:26;13.10;99.90
13976;DHT22;7062;49.792;9.946;2023-11-19T15:50:52;13.00;99.90
13976;DHT22;7062;49.792;9.946;2023-11-19T15:53:18;13.00;99.90
13976;DHT22;7062;49.792;9.946;2023-11-19T15:55:44;12.90;99.90
13976;DHT22;7062;49.792;9.946;2023-11-19T15:58:11;12.90;99.90
13976;DHT22;7062;49.792;9.946;2023-11-19T16:00:36;12.90;99.90
13976;DHT22;7062;49.792;9.946;2023-11-19T16:03:02;12.80;99.90
13976;DHT22;7062;49.792;9.946;2023-11-19T16:05:28;12.80;99.90
13976;DHT22;7062;49.792;9.946;2023-11-19T16:07:54;12.80;99.90